createdAt,value
2023-03-12T00:00:18.910Z,100155.31
2023-03-12T00:02:46.230Z,100158.88
2023-03-12T00:05:13.924Z,100176.09
2023-03-12T00:07:41.266Z,100159.56
2023-03-12T00:10:09.076Z,100146.97
2023-03-12T00:12:36.283Z,100173.91
2023-03-12T00:15:04.091Z,100163.97
2023-03-12T00:17:31.198Z,100148.94
2023-03-12T00:19:58.451Z,100146.41
2023-03-12T00:22:26.016Z,100136.00
2023-03-12T00:24:57.471Z,100124.59
2023-03-12T00:27:27.336Z,100134.31
2023-03-12T00:29:55.101Z,100128.00
2023-03-12T00:32:22.492Z,100140.44
2023-03-12T00:34:54.950Z,100134.97
2023-03-12T00:37:22.676Z,100137.72
2023-03-12T00:39:49.941Z,100128.84
2023-03-12T00:42:17.716Z,100111.72
2023-03-12T00:44:45.136Z,100127.91
2023-03-12T00:47:13.263Z,100123.59
2023-03-12T00:49:40.723Z,100124.03
2023-03-12T00:52:08.181Z,100118.34
2023-03-12T00:54:35.317Z,100119.94
2023-03-12T00:57:02.386Z,100121.41
2023-03-12T00:59:29.673Z,100126.78
2023-03-12T01:01:56.716Z,100121.19
2023-03-12T01:04:24.092Z,100124.84
2023-03-12T01:06:51.428Z,100112.97
2023-03-12T01:09:19.426Z,100105.66
2023-03-12T01:11:46.637Z,100098.13
2023-03-12T01:14:13.752Z,100098.34
2023-03-12T01:16:40.937Z,100106.50
2023-03-12T01:19:08.268Z,100111.75
2023-03-12T01:21:35.385Z,100113.25
2023-03-12T01:24:02.611Z,100118.81
2023-03-12T01:26:29.716Z,100125.31
2023-03-12T01:28:57.007Z,100125.72
2023-03-12T01:31:24.133Z,100132.53
2023-03-12T01:33:53.822Z,100108.16
2023-03-12T01:36:27.090Z,100119.22
2023-03-12T01:38:54.992Z,100133.59
2023-03-12T01:41:24.087Z,100131.34
2023-03-12T01:43:51.675Z,100118.00
2023-03-12T01:46:32.873Z,100129.06
2023-03-12T01:49:09.945Z,100103.75
2023-03-12T01:51:45.852Z,100106.03
2023-03-12T01:54:18.950Z,100101.81
2023-03-12T01:56:47.144Z,100101.03
2023-03-12T01:59:25.782Z,100105.47
2023-03-12T02:01:53.251Z,100110.72
2023-03-12T02:04:23.155Z,100106.84
2023-03-12T02:06:58.098Z,100096.91
2023-03-12T02:09:26.155Z,100095.22
2023-03-12T02:11:53.303Z,100090.84
2023-03-12T02:14:21.030Z,100086.09
2023-03-12T02:16:48.346Z,100089.72
2023-03-12T02:19:26.100Z,100095.56
2023-03-12T02:21:53.445Z,100075.13
2023-03-12T02:24:44.825Z,100087.19
2023-03-12T02:27:12.585Z,100091.34
2023-03-12T02:29:42.307Z,100101.72
2023-03-12T02:32:16.094Z,100099.06
2023-03-12T02:34:43.259Z,100101.13
2023-03-12T02:37:10.879Z,100109.09
2023-03-12T02:39:39.406Z,100105.94
2023-03-12T02:42:06.579Z,100113.00
2023-03-12T02:44:34.432Z,100101.81
2023-03-12T02:47:02.664Z,100117.78
2023-03-12T02:49:32.608Z,100121.19
2023-03-12T02:52:01.480Z,100135.53
2023-03-12T02:54:29.824Z,100127.34
2023-03-12T02:56:57.280Z,100136.00
2023-03-12T02:59:28.969Z,100121.41
2023-03-12T03:02:00.622Z,100112.31
2023-03-12T03:04:29.711Z,100127.94
2023-03-12T03:06:57.548Z,100124.97
2023-03-12T03:09:25.469Z,100137.88
2023-03-12T03:11:52.877Z,100142.69
2023-03-12T03:14:20.456Z,100133.09
2023-03-12T03:16:50.813Z,100139.59
2023-03-12T03:19:18.221Z,100144.00
2023-03-12T03:21:45.471Z,100128.50
2023-03-12T03:24:12.577Z,100138.06
2023-03-12T03:26:39.890Z,100146.16
2023-03-12T03:29:06.976Z,100156.75
2023-03-12T03:31:34.341Z,100152.63
2023-03-12T03:34:01.532Z,100155.00
2023-03-12T03:36:29.044Z,100163.69
2023-03-12T03:39:10.251Z,100171.81
2023-03-12T03:41:37.644Z,100168.53
2023-03-12T03:44:05.528Z,100172.19
2023-03-12T03:46:37.507Z,100174.34
2023-03-12T03:49:07.623Z,100165.94
2023-03-12T03:51:36.059Z,100174.84
2023-03-12T03:54:08.043Z,100169.72
2023-03-12T03:56:35.593Z,100167.06
2023-03-12T03:59:04.843Z,100170.00
2023-03-12T04:01:34.878Z,100158.38
2023-03-12T04:04:02.254Z,100168.94
2023-03-12T04:06:31.966Z,100169.03
2023-03-12T04:08:59.429Z,100178.38
2023-03-12T04:11:28.512Z,100179.72
2023-03-12T04:13:58.248Z,100168.53
2023-03-12T04:16:29.626Z,100173.88
2023-03-12T04:18:58.304Z,100169.84
2023-03-12T04:21:26.697Z,100177.16
2023-03-12T04:23:53.804Z,100165.47
2023-03-12T04:26:24.864Z,100180.94
2023-03-12T04:28:52.788Z,100194.94
2023-03-12T04:31:20.060Z,100196.41
2023-03-12T04:33:51.290Z,100180.81
2023-03-12T04:36:21.221Z,100203.81
2023-03-12T04:38:50.475Z,100218.94
2023-03-12T04:41:21.515Z,100208.81
2023-03-12T04:43:53.634Z,100197.06
2023-03-12T04:46:22.227Z,100225.56
2023-03-12T04:48:49.333Z,100236.81
2023-03-12T04:51:16.772Z,100243.06
2023-03-12T04:53:44.537Z,100251.63
2023-03-12T04:56:13.230Z,100238.75
2023-03-12T04:58:41.781Z,100227.34
2023-03-12T05:01:33.606Z,100221.19
2023-03-12T05:04:04.653Z,100241.97
2023-03-12T05:06:31.951Z,100244.03
2023-03-12T05:08:59.106Z,100233.25
2023-03-12T05:11:26.505Z,100221.75
2023-03-12T05:13:55.080Z,100211.88
2023-03-12T05:16:23.702Z,100224.78
2023-03-12T05:18:51.182Z,100215.00
2023-03-12T05:21:20.254Z,100210.06
2023-03-12T05:23:50.388Z,100224.53
2023-03-12T05:26:31.669Z,100215.06
2023-03-12T05:29:08.799Z,100221.22
2023-03-12T05:31:36.798Z,100218.53
2023-03-12T05:34:05.961Z,100223.69
2023-03-12T05:36:37.088Z,100210.00
2023-03-12T05:39:05.375Z,100216.09
2023-03-12T05:41:33.844Z,100219.25
2023-03-12T05:44:17.987Z,100221.38
2023-03-12T05:46:50.474Z,100229.03
2023-03-12T05:49:17.848Z,100217.66
2023-03-12T05:51:46.622Z,100205.09
2023-03-12T05:54:14.268Z,100223.38
2023-03-12T05:56:41.509Z,100240.63
2023-03-12T05:59:10.779Z,100251.66
2023-03-12T06:01:40.191Z,100248.00
2023-03-12T06:04:07.733Z,100262.19
2023-03-12T06:06:36.338Z,100272.16
2023-03-12T06:09:06.036Z,100273.13
2023-03-12T06:11:36.323Z,100281.56
2023-03-12T06:14:04.308Z,100289.69
2023-03-12T06:16:32.606Z,100298.69
2023-03-12T06:19:02.340Z,100298.94
2023-03-12T06:21:32.777Z,100307.38
2023-03-12T06:24:01.926Z,100295.75
2023-03-12T06:26:43.640Z,100310.88
2023-03-12T06:29:10.757Z,100327.00
2023-03-12T06:31:39.820Z,100319.88
2023-03-12T06:34:07.276Z,100322.13
2023-03-12T06:36:34.432Z,100327.88
2023-03-12T06:39:01.550Z,100327.03
2023-03-12T06:41:28.804Z,100330.75
2023-03-12T06:43:55.849Z,100318.31
2023-03-12T06:46:25.280Z,100331.38
2023-03-12T06:48:52.572Z,100334.34
2023-03-12T06:51:19.657Z,100340.25
2023-03-12T06:53:46.971Z,100338.34
2023-03-12T06:56:14.362Z,100348.56
2023-03-12T06:58:42.120Z,100346.56
2023-03-12T07:01:09.742Z,100347.38
2023-03-12T07:03:37.118Z,100356.59
2023-03-12T07:06:04.613Z,100345.72
2023-03-12T07:08:31.875Z,100309.97
2023-03-12T07:11:02.628Z,100296.41
2023-03-12T07:13:30.571Z,100317.16
2023-03-12T07:15:58.319Z,100303.47
2023-03-12T07:18:25.927Z,100298.44
2023-03-12T07:20:53.369Z,100309.16
2023-03-12T07:23:20.846Z,100318.75
2023-03-12T07:25:48.123Z,100310.84
2023-03-12T07:28:15.986Z,100311.66
2023-03-12T07:30:43.286Z,100314.78
2023-03-12T07:33:12.850Z,100328.13
2023-03-12T07:35:40.503Z,100315.09
2023-03-12T07:38:08.828Z,100332.50
2023-03-12T07:40:36.750Z,100330.16
2023-03-12T07:43:07.147Z,100350.44
2023-03-12T07:45:36.119Z,100348.63
2023-03-12T07:48:03.581Z,100352.47
2023-03-12T07:50:30.880Z,100362.09
2023-03-12T07:52:58.022Z,100371.31
2023-03-12T07:55:25.614Z,100355.56
2023-03-12T07:57:53.813Z,100362.56
2023-03-12T08:00:21.365Z,100350.84
2023-03-12T08:02:48.600Z,100358.47
2023-03-12T08:05:15.953Z,100364.88
2023-03-12T08:07:43.102Z,100367.53
2023-03-12T08:10:12.088Z,100371.38
2023-03-12T08:12:39.397Z,100374.59
2023-03-12T08:15:09.125Z,100368.28
2023-03-12T08:17:36.144Z,100378.78
2023-03-12T08:20:04.856Z,100385.03
2023-03-12T08:22:31.882Z,100375.94
2023-03-12T08:24:59.009Z,100385.75
2023-03-12T08:27:26.178Z,100374.16
2023-03-12T08:29:53.343Z,100377.97
2023-03-12T08:32:20.516Z,100385.75
2023-03-12T08:34:47.814Z,100395.75
2023-03-12T08:37:19.381Z,100402.03
2023-03-12T08:39:46.645Z,100404.72
2023-03-12T08:42:13.745Z,100404.09
2023-03-12T08:44:40.879Z,100406.91
2023-03-12T08:47:08.099Z,100403.19
2023-03-12T08:49:35.217Z,100403.50
2023-03-12T08:52:02.408Z,100414.97
2023-03-12T08:54:29.433Z,100412.63
2023-03-12T08:56:56.816Z,100415.38
2023-03-12T08:59:24.030Z,100413.16
2023-03-12T09:01:51.264Z,100413.63
2023-03-12T09:04:18.756Z,100409.25
2023-03-12T09:06:46.128Z,100412.88
2023-03-12T09:09:13.164Z,100398.72
2023-03-12T09:11:41.094Z,100401.94
2023-03-12T09:14:46.216Z,100416.63
2023-03-12T09:16:55.948Z,100409.34
2023-03-12T09:19:23.261Z,100415.75
2023-03-12T09:21:50.365Z,100410.25
2023-03-12T09:24:17.816Z,100410.31
2023-03-12T09:26:45.089Z,100411.34
2023-03-12T09:29:12.236Z,100420.75
2023-03-12T09:31:39.683Z,100423.63
2023-03-12T09:34:06.974Z,100430.44
2023-03-12T09:36:34.433Z,100429.06
2023-03-12T09:39:02.614Z,100436.59
2023-03-12T09:41:35.851Z,100450.56
2023-03-12T09:44:17.969Z,100446.69
2023-03-12T09:46:52.257Z,100448.16
2023-03-12T09:49:32.573Z,100448.44
2023-03-12T09:52:03.449Z,100457.31
2023-03-12T09:54:34.778Z,100461.81
2023-03-12T09:57:09.316Z,100465.00
2023-03-12T09:59:37.234Z,100474.22
2023-03-12T10:02:22.386Z,100473.38
2023-03-12T10:05:06.336Z,100490.53
2023-03-12T10:07:47.381Z,100496.75
2023-03-12T10:10:26.675Z,100504.00
2023-03-12T10:13:12.467Z,100496.25
2023-03-12T10:16:25.136Z,100498.56
2023-03-12T10:19:16.556Z,100497.81
2023-03-12T10:21:49.467Z,100502.53
2023-03-12T10:24:47.308Z,100500.25
2023-03-12T10:27:18.894Z,100497.00
2023-03-12T10:29:51.059Z,100508.66
2023-03-12T10:32:26.819Z,100507.41
2023-03-12T10:35:00.534Z,100502.25
2023-03-12T10:37:37.387Z,100516.19
2023-03-12T10:40:06.139Z,100522.88
2023-03-12T10:42:33.852Z,100525.06
2023-03-12T10:45:09.801Z,100536.59
2023-03-12T10:47:39.939Z,100536.97
2023-03-12T10:50:30.350Z,100538.19
2023-03-12T10:53:22.687Z,100535.81
2023-03-12T10:56:08.906Z,100528.22
2023-03-12T10:58:45.233Z,100537.56
2023-03-12T11:01:25.357Z,100544.47
2023-03-12T11:04:08.326Z,100544.50
2023-03-12T11:06:36.023Z,100555.53
2023-03-12T11:09:16.545Z,100558.31
2023-03-12T11:11:47.690Z,100558.59
2023-03-12T11:14:19.235Z,100555.63
2023-03-12T11:16:46.608Z,100550.41
2023-03-12T11:19:20.256Z,100557.06
2023-03-12T11:21:59.977Z,100553.94
2023-03-12T11:24:27.549Z,100548.34
2023-03-12T11:27:38.363Z,100556.06
2023-03-12T11:30:11.658Z,100545.34
2023-03-12T11:32:42.743Z,100542.03
2023-03-12T11:35:13.043Z,100550.66
2023-03-12T11:38:17.214Z,100548.25
2023-03-12T11:41:00.098Z,100552.34
2023-03-12T11:43:44.158Z,100547.41
2023-03-12T11:46:37.812Z,100547.44
2023-03-12T11:49:49.309Z,100530.59
2023-03-12T11:52:51.610Z,100537.31
2023-03-12T11:55:52.986Z,100535.47
2023-03-12T11:58:52.153Z,100532.59
2023-03-12T12:01:28.142Z,100529.59
2023-03-12T12:03:58.521Z,100537.25
2023-03-12T12:06:55.515Z,100535.56
2023-03-12T12:09:45.156Z,100541.00
2023-03-12T12:12:26.475Z,100536.53
2023-03-12T12:15:21.119Z,100547.78
2023-03-12T12:18:31.077Z,100549.25
2023-03-12T12:21:25.872Z,100556.19
2023-03-12T12:24:11.551Z,100541.47
2023-03-12T12:26:53.457Z,100539.28
2023-03-12T12:29:38.721Z,100545.03
2023-03-12T12:32:13.142Z,100543.34
2023-03-12T12:34:46.121Z,100543.44
2023-03-12T12:37:22.287Z,100545.66
2023-03-12T12:39:59.218Z,100537.94
2023-03-12T12:42:32.285Z,100539.72
2023-03-12T12:45:02.572Z,100539.38
2023-03-12T12:47:40.495Z,100543.44
2023-03-12T12:50:14.943Z,100540.47
2023-03-12T12:52:42.739Z,100532.69
2023-03-12T12:55:12.860Z,100542.59
2023-03-12T12:57:57.737Z,100538.06
2023-03-12T13:00:48.791Z,100526.88
2023-03-12T13:03:22.250Z,100523.88
2023-03-12T13:06:04.438Z,100534.84
2023-03-12T13:08:40.457Z,100535.22
2023-03-12T13:11:26.439Z,100532.47
2023-03-12T13:14:02.668Z,100528.94
2023-03-12T13:16:39.778Z,100529.59
2023-03-12T13:19:28.734Z,100543.44
2023-03-12T13:22:21.731Z,100549.44
2023-03-12T13:25:07.555Z,100538.78
2023-03-12T13:27:40.723Z,100533.78
2023-03-12T13:30:47.435Z,100543.28
2023-03-12T13:33:19.159Z,100547.81
2023-03-12T13:36:07.130Z,100543.66
2023-03-12T13:38:38.296Z,100542.00
2023-03-12T13:41:07.359Z,100543.50
2023-03-12T13:43:37.353Z,100540.78
2023-03-12T13:46:21.731Z,100543.97
2023-03-12T13:48:49.792Z,100545.22
2023-03-12T13:51:20.021Z,100553.03
2023-03-12T13:53:55.893Z,100554.91
2023-03-12T13:56:29.303Z,100561.69
2023-03-12T13:58:59.227Z,100558.22
2023-03-12T14:01:39.640Z,100552.97
2023-03-12T14:04:38.784Z,100559.56
2023-03-12T14:07:20.515Z,100564.34
2023-03-12T14:10:16.717Z,100564.25
2023-03-12T14:13:07.827Z,100568.47
2023-03-12T14:15:54.484Z,100578.38
2023-03-12T14:18:26.441Z,100584.94
2023-03-12T14:20:59.640Z,100592.84
2023-03-12T14:23:37.534Z,100610.34
2023-03-12T14:26:06.845Z,100604.41
2023-03-12T14:28:41.373Z,100603.34
2023-03-12T14:31:17.123Z,100604.13
2023-03-12T14:33:50.480Z,100613.47
2023-03-12T14:36:20.792Z,100620.13
2023-03-12T14:38:49.797Z,100619.91
2023-03-12T14:41:32.320Z,100630.16
2023-03-12T14:44:20.518Z,100636.09
2023-03-12T14:46:56.916Z,100641.38
2023-03-12T14:49:26.480Z,100622.19
2023-03-12T14:51:54.320Z,100615.16
2023-03-12T14:54:28.750Z,100625.97
2023-03-12T14:56:55.974Z,100630.50
2023-03-12T14:59:32.209Z,100643.28
2023-03-12T15:02:04.245Z,100651.81
2023-03-12T15:04:34.394Z,100640.66
2023-03-12T15:07:04.750Z,100648.47
2023-03-12T15:09:35.679Z,100651.47
2023-03-12T15:12:22.409Z,100650.84
2023-03-12T15:14:53.290Z,100659.44
2023-03-12T15:17:24.155Z,100658.94
2023-03-12T15:19:54.863Z,100665.97
2023-03-12T15:22:25.773Z,100660.31
2023-03-12T15:24:53.793Z,100672.59
2023-03-12T15:27:23.941Z,100674.44
2023-03-12T15:29:53.061Z,100675.38
2023-03-12T15:32:25.313Z,100680.19
2023-03-12T15:34:59.284Z,100689.63
2023-03-12T15:37:38.208Z,100697.16
2023-03-12T15:40:22.082Z,100704.00
2023-03-12T15:42:49.961Z,100703.31
2023-03-12T15:45:21.962Z,100688.56
2023-03-12T15:47:51.887Z,100695.75
2023-03-12T15:50:23.214Z,100701.03
2023-03-12T15:53:25.769Z,100712.84
2023-03-12T15:56:06.533Z,100717.28
2023-03-12T15:58:36.950Z,100716.38
2023-03-12T16:01:28.349Z,100718.31
2023-03-12T16:03:55.810Z,100730.91
2023-03-12T16:06:26.507Z,100746.50
2023-03-12T16:08:57.892Z,100751.63
2023-03-12T16:11:31.679Z,100741.13
2023-03-12T16:14:20.491Z,100752.69
2023-03-12T16:16:48.447Z,100751.53
2023-03-12T16:19:19.145Z,100756.56
2023-03-12T16:21:47.675Z,100755.63
2023-03-12T16:24:16.816Z,100762.13
2023-03-12T16:26:54.595Z,100770.75
2023-03-12T16:29:26.310Z,100782.44
2023-03-12T16:31:56.248Z,100790.44
2023-03-12T16:34:23.841Z,100786.56
2023-03-12T16:36:51.516Z,100795.47
2023-03-12T16:39:19.105Z,100791.19
2023-03-12T16:41:47.390Z,100803.38
2023-03-12T16:44:19.686Z,100812.22
2023-03-12T16:46:47.081Z,100828.88
2023-03-12T16:49:20.196Z,100829.91
2023-03-12T16:51:47.951Z,100844.94
2023-03-12T16:54:15.299Z,100858.59
2023-03-12T16:56:46.483Z,100871.63
2023-03-12T16:59:27.293Z,100865.88
2023-03-12T17:01:54.682Z,100863.34
2023-03-12T17:04:21.891Z,100876.56
2023-03-12T17:06:48.979Z,100895.41
2023-03-12T17:09:16.200Z,100922.59
2023-03-12T17:11:43.898Z,100932.28
2023-03-12T17:14:22.124Z,100936.94
2023-03-12T17:16:50.095Z,100941.88
2023-03-12T17:19:17.275Z,100965.97
2023-03-12T17:21:45.154Z,100961.66
2023-03-12T17:24:15.929Z,100956.66
2023-03-12T17:26:45.630Z,100963.09
2023-03-12T17:29:13.112Z,100974.53
2023-03-12T17:31:40.528Z,100974.53
2023-03-12T17:34:09.558Z,100980.19
2023-03-12T17:36:38.133Z,100989.19
2023-03-12T17:39:05.743Z,100994.66
2023-03-12T17:41:34.039Z,100994.94
2023-03-12T17:44:02.357Z,101001.81
2023-03-12T17:46:31.159Z,100997.25
2023-03-12T17:48:58.712Z,101003.63
2023-03-12T17:51:26.311Z,101025.13
2023-03-12T17:53:53.655Z,101053.91
2023-03-12T17:56:21.067Z,101058.25
2023-03-12T17:58:48.575Z,101049.44
2023-03-12T18:01:16.865Z,101047.38
2023-03-12T18:03:45.212Z,101047.06
2023-03-12T18:06:13.546Z,101042.06
2023-03-12T18:08:41.091Z,101062.84
2023-03-12T18:11:08.836Z,101074.41
2023-03-12T18:13:36.145Z,101077.75
2023-03-12T18:16:04.127Z,101088.53
2023-03-12T18:18:31.388Z,101101.38
2023-03-12T18:21:00.348Z,101116.84
2023-03-12T18:23:28.419Z,101120.13
2023-03-12T18:25:56.278Z,101108.47
2023-03-12T18:28:24.473Z,101116.53
2023-03-12T18:30:54.206Z,101104.81
2023-03-12T18:33:22.631Z,101120.00
2023-03-12T18:35:53.183Z,101126.91
2023-03-12T18:38:23.782Z,101142.91
2023-03-12T18:40:52.375Z,101143.91
2023-03-12T18:43:22.024Z,101134.19
2023-03-12T18:45:50.758Z,101129.66
2023-03-12T18:48:18.693Z,101142.69
2023-03-12T18:50:47.077Z,101153.13
2023-03-12T18:53:14.628Z,101150.81
2023-03-12T18:55:42.213Z,101157.44
2023-03-12T18:58:09.424Z,101167.84
2023-03-12T19:00:36.986Z,101173.97
2023-03-12T19:03:05.187Z,101180.84
2023-03-12T19:05:32.602Z,101167.28
2023-03-12T19:07:59.729Z,101167.28
2023-03-12T19:10:26.845Z,101168.09
2023-03-12T19:12:54.344Z,101181.47
2023-03-12T19:15:24.398Z,101175.31
2023-03-12T19:17:53.099Z,101172.06
2023-03-12T19:20:21.148Z,101173.38
2023-03-12T19:22:48.299Z,101181.09
2023-03-12T19:25:16.060Z,101183.00
2023-03-12T19:27:43.203Z,101190.91
2023-03-12T19:30:10.964Z,101182.38
2023-03-12T19:32:43.790Z,101183.69
2023-03-12T19:35:11.893Z,101186.56
2023-03-12T19:37:39.021Z,101187.97
2023-03-12T19:40:07.559Z,101187.47
2023-03-12T19:42:35.169Z,101201.66
2023-03-12T19:45:02.808Z,101203.88
2023-03-12T19:47:33.424Z,101208.25
2023-03-12T19:50:01.027Z,101211.47
2023-03-12T19:52:29.182Z,101202.47
2023-03-12T19:55:04.863Z,101197.59
2023-03-12T19:57:34.394Z,101213.81
2023-03-12T20:00:02.386Z,101217.16
2023-03-12T20:02:33.236Z,101218.56
2023-03-12T20:05:01.023Z,101215.34
2023-03-12T20:07:29.830Z,101229.03
2023-03-12T20:09:58.530Z,101216.16
2023-03-12T20:12:29.307Z,101223.56
2023-03-12T20:14:58.771Z,101229.31
2023-03-12T20:17:27.510Z,101226.28
2023-03-12T20:19:56.505Z,101239.94
2023-03-12T20:22:26.378Z,101244.81
2023-03-12T20:24:55.145Z,101253.69
2023-03-12T20:27:23.245Z,101250.34
2023-03-12T20:29:51.831Z,101255.41
2023-03-12T20:32:20.490Z,101258.22
2023-03-12T20:34:48.919Z,101253.56
2023-03-12T20:37:16.505Z,101253.25
2023-03-12T20:39:44.355Z,101268.22
2023-03-12T20:42:11.648Z,101265.69
2023-03-12T20:44:39.192Z,101267.31
2023-03-12T20:47:06.315Z,101278.88
2023-03-12T20:49:33.787Z,101281.59
2023-03-12T20:52:02.756Z,101286.28
2023-03-12T20:54:30.294Z,101283.53
2023-03-12T20:56:57.592Z,101280.28
2023-03-12T20:59:24.763Z,101279.91
2023-03-12T21:01:52.171Z,101295.59
2023-03-12T21:04:19.659Z,101295.41
2023-03-12T21:06:47.827Z,101293.47
2023-03-12T21:09:15.297Z,101292.16
2023-03-12T21:11:42.678Z,101290.03
2023-03-12T21:14:10.239Z,101294.81
2023-03-12T21:16:37.745Z,101293.69
2023-03-12T21:19:04.816Z,101292.69
2023-03-12T21:21:35.368Z,101298.44
2023-03-12T21:24:02.603Z,101298.75
2023-03-12T21:26:29.741Z,101299.38
2023-03-12T21:28:58.004Z,101312.22
2023-03-12T21:31:27.111Z,101303.50
2023-03-12T21:33:56.468Z,101309.50
2023-03-12T21:36:25.642Z,101312.22
2023-03-12T21:38:53.515Z,101316.38
2023-03-12T21:41:22.017Z,101314.25
2023-03-12T21:43:49.792Z,101315.84
2023-03-12T21:46:19.914Z,101321.03
2023-03-12T21:48:50.086Z,101320.50
2023-03-12T21:51:18.898Z,101318.59
2023-03-12T21:53:46.414Z,101335.50
2023-03-12T21:56:13.679Z,101335.19
2023-03-12T21:58:41.305Z,101323.44
2023-03-12T22:01:11.185Z,101326.69
2023-03-12T22:03:39.442Z,101321.03
2023-03-12T22:06:07.478Z,101319.63
2023-03-12T22:08:35.329Z,101328.63
2023-03-12T22:11:02.756Z,101331.66
2023-03-12T22:13:29.954Z,101330.84
2023-03-12T22:15:59.375Z,101330.56
2023-03-12T22:18:27.994Z,101327.31
2023-03-12T22:20:57.416Z,101326.97
2023-03-12T22:23:25.147Z,101325.38
2023-03-12T22:25:52.317Z,101333.69
2023-03-12T22:28:20.043Z,101327.09
2023-03-12T22:30:47.419Z,101325.78
2023-03-12T22:33:14.506Z,101332.34
2023-03-12T22:35:46.073Z,101334.28
2023-03-12T22:38:14.583Z,101329.09
2023-03-12T22:40:41.810Z,101330.53
2023-03-12T22:43:09.373Z,101336.31
2023-03-12T22:45:36.647Z,101321.63
2023-03-12T22:48:03.857Z,101322.44
2023-03-12T22:50:31.115Z,101325.16
2023-03-12T22:52:58.752Z,101327.28
2023-03-12T22:55:26.111Z,101320.72
2023-03-12T22:57:53.184Z,101310.31
2023-03-12T23:00:26.715Z,101318.19
2023-03-12T23:02:54.188Z,101310.59
2023-03-12T23:05:21.446Z,101313.91
2023-03-12T23:07:48.780Z,101312.31
2023-03-12T23:10:16.092Z,101318.38
2023-03-12T23:12:43.179Z,101327.38
2023-03-12T23:15:11.383Z,101318.91
2023-03-12T23:17:38.615Z,101314.53
2023-03-12T23:20:07.900Z,101329.03
2023-03-12T23:22:34.981Z,101328.78
2023-03-12T23:25:02.041Z,101329.69
2023-03-12T23:27:29.367Z,101328.69
2023-03-12T23:29:56.582Z,101327.97
2023-03-12T23:32:23.866Z,101342.22
2023-03-12T23:34:51.239Z,101346.59
2023-03-12T23:37:18.498Z,101344.16
2023-03-12T23:39:54.405Z,101351.53
2023-03-12T23:42:22.219Z,101352.84
2023-03-12T23:44:49.314Z,101348.69
2023-03-12T23:47:16.524Z,101351.44
2023-03-12T23:49:43.571Z,101347.88
2023-03-12T23:52:10.600Z,101357.00
2023-03-12T23:54:37.780Z,101344.84
2023-03-12T23:57:04.929Z,101347.66
2023-03-12T23:59:32.036Z,101354.50
